createdAt,value
2022-10-19T00:01:02.111Z,98817.27
2022-10-19T00:03:29.393Z,98817.01
2022-10-19T00:05:56.462Z,98815.24
2022-10-19T00:08:23.654Z,98810.27
2022-10-19T00:10:50.643Z,98811.41
2022-10-19T00:13:17.591Z,98807.36
2022-10-19T00:15:45.333Z,98803.27
2022-10-19T00:18:13.326Z,98799.54
2022-10-19T00:20:40.274Z,98797.21
2022-10-19T00:23:07.259Z,98796.57
2022-10-19T00:25:34.268Z,98798.45
2022-10-19T00:28:01.367Z,98797.08
2022-10-19T00:30:28.646Z,98796.50
2022-10-19T00:32:55.686Z,98793.11
2022-10-19T00:35:22.929Z,98796.08
2022-10-19T00:37:49.881Z,98795.36
2022-10-19T00:40:19.107Z,98790.98
2022-10-19T00:42:46.293Z,98791.54
2022-10-19T00:45:15.498Z,98791.67
2022-10-19T00:47:42.896Z,98786.48
2022-10-19T00:50:10.755Z,98786.48
2022-10-19T00:52:37.897Z,98785.55
2022-10-19T00:55:05.557Z,98783.11
2022-10-19T00:57:32.678Z,98782.89
2022-10-19T00:59:59.805Z,98780.55
2022-10-19T01:02:26.904Z,98788.71
2022-10-19T01:04:53.963Z,98784.16
2022-10-19T01:07:21.344Z,98786.18
2022-10-19T01:09:48.338Z,98786.14
2022-10-19T01:12:24.433Z,98785.96
2022-10-19T01:14:59.904Z,98784.34
2022-10-19T01:17:50.061Z,98783.05
2022-10-19T01:20:48.142Z,98784.52
2022-10-19T01:23:24.777Z,98782.98
2022-10-19T01:25:52.094Z,98784.15
2022-10-19T01:28:50.369Z,98785.02
2022-10-19T01:31:17.471Z,98784.34
2022-10-19T01:34:11.997Z,98778.52
2022-10-19T01:37:18.872Z,98790.75
2022-10-19T01:40:00.053Z,98790.01
2022-10-19T01:42:33.194Z,98798.21
2022-10-19T01:45:09.577Z,98796.41
2022-10-19T01:47:40.990Z,98799.81
2022-10-19T01:50:33.404Z,98800.89
2022-10-19T01:53:00.377Z,98797.63
2022-10-19T01:55:29.454Z,98798.67
2022-10-19T01:58:02.618Z,98802.23
2022-10-19T02:00:29.883Z,98800.60
2022-10-19T02:02:56.817Z,98799.84
2022-10-19T02:05:32.174Z,98805.20
2022-10-19T02:08:08.283Z,98810.21
2022-10-19T02:10:35.240Z,98814.33
2022-10-19T02:13:02.227Z,98817.98
2022-10-19T02:15:29.691Z,98819.21
2022-10-19T02:17:59.847Z,98823.23
2022-10-19T02:20:29.636Z,98820.61
2022-10-19T02:22:56.958Z,98823.89
2022-10-19T02:25:24.663Z,98822.14
2022-10-19T02:27:52.679Z,98823.95
2022-10-19T02:30:22.524Z,98821.08
2022-10-19T02:32:49.705Z,98820.89
2022-10-19T02:35:16.754Z,98824.14
2022-10-19T02:37:43.799Z,98817.87
2022-10-19T02:40:10.873Z,98820.45
2022-10-19T02:42:48.234Z,98824.05
2022-10-19T02:45:29.515Z,98827.11
2022-10-19T02:48:01.010Z,98826.82
2022-10-19T02:50:28.512Z,98827.91
2022-10-19T02:52:55.436Z,98826.86
2022-10-19T02:55:22.394Z,98832.83
2022-10-19T02:57:49.319Z,98836.66
2022-10-19T03:00:16.417Z,98841.42
2022-10-19T03:02:44.153Z,98848.03
2022-10-19T03:05:11.128Z,98859.20
2022-10-19T03:07:38.125Z,98860.23
2022-10-19T03:10:05.870Z,98865.06
2022-10-19T03:12:32.870Z,98870.45
2022-10-19T03:14:59.873Z,98869.61
2022-10-19T03:17:26.874Z,98874.85
2022-10-19T03:19:55.830Z,98872.20
2022-10-19T03:22:22.885Z,98871.27
2022-10-19T03:24:50.701Z,98867.23
2022-10-19T03:27:17.658Z,98865.65
2022-10-19T03:30:04.697Z,98864.08
2022-10-19T03:32:31.904Z,98864.96
2022-10-19T03:34:59.052Z,98866.26
2022-10-19T03:37:25.987Z,98869.47
2022-10-19T03:39:52.935Z,98872.23
2022-10-19T03:42:19.819Z,98879.33
2022-10-19T03:44:46.775Z,98877.38
2022-10-19T03:47:18.407Z,98881.25
2022-10-19T03:49:47.069Z,98881.94
2022-10-19T03:52:14.244Z,98886.07
2022-10-19T03:54:42.865Z,98884.03
2022-10-19T03:57:10.493Z,98880.38
2022-10-19T03:59:37.822Z,98878.65
2022-10-19T04:02:04.762Z,98879.17
2022-10-19T04:04:31.746Z,98877.91
2022-10-19T04:06:58.881Z,98878.29
2022-10-19T04:09:25.769Z,98881.63
2022-10-19T04:11:53.034Z,98885.48
2022-10-19T04:14:31.703Z,98886.68
2022-10-19T04:17:02.953Z,98881.98
2022-10-19T04:19:31.937Z,98880.75
2022-10-19T04:21:58.878Z,98886.05
2022-10-19T04:24:25.940Z,98883.65
2022-10-19T04:26:54.418Z,98881.46
2022-10-19T04:29:26.290Z,98880.41
2022-10-19T04:31:56.561Z,98882.43
2022-10-19T04:34:24.309Z,98883.05
2022-10-19T04:36:53.459Z,98885.40
2022-10-19T04:39:20.548Z,98881.71
2022-10-19T04:41:47.815Z,98881.67
2022-10-19T04:44:15.774Z,98883.85
2022-10-19T04:46:42.862Z,98881.63
2022-10-19T04:49:10.083Z,98881.73
2022-10-19T04:51:37.057Z,98878.88
2022-10-19T04:54:04.209Z,98880.29
2022-10-19T04:56:32.523Z,98882.09
2022-10-19T04:59:00.126Z,98886.43
2022-10-19T05:01:28.326Z,98888.61
2022-10-19T05:04:04.917Z,98883.73
2022-10-19T05:06:32.955Z,98884.89
2022-10-19T05:09:00.290Z,98888.25
2022-10-19T05:11:27.542Z,98883.96
2022-10-19T05:13:57.275Z,98884.70
2022-10-19T05:16:25.919Z,98883.67
2022-10-19T05:18:56.249Z,98882.77
2022-10-19T05:21:23.439Z,98883.73
2022-10-19T05:23:54.005Z,98879.83
2022-10-19T05:26:23.956Z,98881.90
2022-10-19T05:28:57.996Z,98881.12
2022-10-19T05:31:27.389Z,98884.95
2022-10-19T05:33:56.313Z,98890.34
2022-10-19T05:36:26.395Z,98891.36
2022-10-19T05:38:55.641Z,98891.20
2022-10-19T05:41:22.771Z,98889.20
2022-10-19T05:43:57.647Z,98888.67
2022-10-19T05:46:26.025Z,98888.57
2022-10-19T05:48:55.060Z,98887.54
2022-10-19T05:51:22.506Z,98894.42
2022-10-19T05:53:49.759Z,98898.88
2022-10-19T05:56:20.460Z,98901.83
2022-10-19T05:58:51.231Z,98897.54
2022-10-19T06:01:19.311Z,98898.89
2022-10-19T06:03:47.350Z,98892.62
2022-10-19T06:06:14.449Z,98891.65
2022-10-19T06:08:42.087Z,98892.31
2022-10-19T06:11:12.232Z,98898.08
2022-10-19T06:13:39.630Z,98894.83
2022-10-19T06:16:09.167Z,98899.33
2022-10-19T06:18:37.192Z,98901.06
2022-10-19T06:21:05.482Z,98903.20
2022-10-19T06:23:34.706Z,98903.83
2022-10-19T06:26:07.156Z,98894.05
2022-10-19T06:28:35.246Z,98894.33
2022-10-19T06:31:03.357Z,98892.48
2022-10-19T06:33:33.646Z,98890.23
2022-10-19T06:36:22.796Z,98889.27
2022-10-19T06:38:50.066Z,98887.91
2022-10-19T06:41:17.469Z,98887.84
2022-10-19T06:43:49.018Z,98890.73
2022-10-19T06:46:20.349Z,98888.16
2022-10-19T06:48:55.525Z,98894.37
2022-10-19T06:51:22.898Z,98900.35
2022-10-19T06:53:54.295Z,98893.64
2022-10-19T06:56:24.827Z,98891.42
2022-10-19T06:58:52.761Z,98888.36
2022-10-19T07:01:20.164Z,98883.48
2022-10-19T07:03:47.186Z,98880.53
2022-10-19T07:06:15.814Z,98874.34
2022-10-19T07:08:43.738Z,98874.21
2022-10-19T07:11:12.558Z,98870.06
2022-10-19T07:13:39.718Z,98869.14
2022-10-19T07:16:14.654Z,98867.46
2022-10-19T07:18:46.281Z,98863.14
2022-10-19T07:21:14.650Z,98866.66
2022-10-19T07:23:42.803Z,98864.70
2022-10-19T07:26:21.317Z,98857.46
2022-10-19T07:28:48.399Z,98855.70
2022-10-19T07:31:20.642Z,98858.08
2022-10-19T07:33:51.466Z,98855.39
2022-10-19T07:36:18.874Z,98857.02
2022-10-19T07:38:46.178Z,98858.94
2022-10-19T07:41:15.025Z,98861.61
2022-10-19T07:43:42.905Z,98863.73
2022-10-19T07:46:19.890Z,98858.91
2022-10-19T07:48:47.589Z,98857.90
2022-10-19T07:51:15.544Z,98854.20
2022-10-19T07:53:43.017Z,98850.70
2022-10-19T07:56:15.104Z,98850.96
2022-10-19T07:58:42.388Z,98841.64
2022-10-19T08:01:12.103Z,98836.36
2022-10-19T08:06:26.627Z,98830.62
2022-10-19T08:08:56.303Z,98830.18
2022-10-19T08:11:25.467Z,98827.22
2022-10-19T08:13:53.113Z,98826.05
2022-10-19T08:16:23.167Z,98823.77
2022-10-19T08:18:50.386Z,98826.70
2022-10-19T08:21:18.209Z,98821.80
2022-10-19T08:23:47.228Z,98817.79
2022-10-19T08:26:14.509Z,98817.41
2022-10-19T08:28:41.470Z,98819.44
2022-10-19T08:31:15.796Z,98818.19
2022-10-19T08:33:42.926Z,98807.40
2022-10-19T08:36:11.285Z,98798.34
2022-10-19T08:38:38.489Z,98795.71
2022-10-19T08:41:32.208Z,98795.33
2022-10-19T08:44:27.356Z,98793.16
2022-10-19T08:47:02.542Z,98791.48
2022-10-19T08:49:30.803Z,98790.91
2022-10-19T08:51:59.973Z,98785.33
2022-10-19T08:54:41.381Z,98784.34
2022-10-19T08:57:15.585Z,98790.25
2022-10-19T08:59:52.132Z,98785.80
2022-10-19T09:02:25.040Z,98786.09
2022-10-19T09:04:58.184Z,98786.63
2022-10-19T09:07:26.470Z,98790.98
2022-10-19T09:10:15.905Z,98789.32
2022-10-19T09:12:49.047Z,98785.15
2022-10-19T09:15:19.438Z,98780.62
2022-10-19T09:17:46.900Z,98781.05
2022-10-19T09:20:23.081Z,98783.92
2022-10-19T09:23:03.713Z,98783.33
2022-10-19T09:25:30.996Z,98786.20
2022-10-19T09:28:06.512Z,98779.73
2022-10-19T09:30:33.697Z,98780.52
2022-10-19T09:33:01.547Z,98785.48
2022-10-19T09:35:28.739Z,98788.52
2022-10-19T09:37:55.782Z,98784.11
2022-10-19T09:40:25.671Z,98784.67
2022-10-19T09:42:57.420Z,98786.27
2022-10-19T09:45:48.591Z,98785.23
2022-10-19T09:48:20.685Z,98786.58
2022-10-19T09:50:51.871Z,98789.76
2022-10-19T09:53:19.849Z,98792.83
2022-10-19T09:56:03.137Z,98790.27
2022-10-19T09:58:33.261Z,98800.08
2022-10-19T10:01:01.834Z,98802.13
2022-10-19T10:03:35.408Z,98807.13
2022-10-19T10:06:07.320Z,98809.06
2022-10-19T10:08:37.127Z,98804.59
2022-10-19T10:11:13.624Z,98801.53
2022-10-19T10:13:49.820Z,98801.82
2022-10-19T10:16:18.354Z,98802.68
2022-10-19T10:18:56.258Z,98801.12
2022-10-19T10:21:25.791Z,98799.64
2022-10-19T10:24:06.558Z,98801.69
2022-10-19T10:26:42.368Z,98796.73
2022-10-19T10:29:24.867Z,98802.05
2022-10-19T10:31:58.821Z,98803.25
2022-10-19T10:35:00.015Z,98803.11
2022-10-19T10:37:39.078Z,98805.77
2022-10-19T10:40:07.034Z,98796.84
2022-10-19T10:42:42.514Z,98791.95
2022-10-19T10:45:47.360Z,98791.09
2022-10-19T10:48:39.897Z,98793.59
2022-10-19T10:51:22.306Z,98787.31
2022-10-19T10:53:49.763Z,98777.57
2022-10-19T10:56:25.280Z,98776.84
2022-10-19T10:59:00.873Z,98771.84
2022-10-19T11:01:41.125Z,98767.24
2022-10-19T11:04:12.860Z,98763.85
2022-10-19T11:06:44.515Z,98769.71
2022-10-19T11:09:34.062Z,98771.63
2022-10-19T11:12:05.424Z,98765.81
2022-10-19T11:14:56.743Z,98770.65
2022-10-19T11:17:31.287Z,98763.23
2022-10-19T11:19:58.345Z,98758.78
2022-10-19T11:22:29.995Z,98754.73
2022-10-19T11:24:57.136Z,98751.00
2022-10-19T11:27:51.042Z,98750.02
2022-10-19T11:30:19.886Z,98750.92
2022-10-19T11:35:53.382Z,98748.80
2022-10-19T11:38:43.540Z,98746.51
2022-10-19T11:41:18.548Z,98745.35
2022-10-19T11:44:27.545Z,98746.51
2022-10-19T11:47:29.740Z,98744.42
2022-10-19T11:53:06.429Z,98735.29
2022-10-19T11:56:01.633Z,98729.23
2022-10-19T11:58:57.508Z,98727.07
2022-10-19T12:01:27.384Z,98727.45
2022-10-19T12:03:57.744Z,98728.48
2022-10-19T12:06:39.956Z,98727.51
2022-10-19T12:09:14.329Z,98726.52
2022-10-19T12:12:07.829Z,98728.09
2022-10-19T12:14:37.357Z,98728.02
2022-10-19T12:17:14.738Z,98737.01
2022-10-19T12:19:48.203Z,98741.83
2022-10-19T12:22:23.588Z,98736.39
2022-10-19T12:24:53.357Z,98734.90
2022-10-19T12:27:26.409Z,98747.59
2022-10-19T12:29:53.361Z,98747.29
2022-10-19T12:32:20.302Z,98743.20
2022-10-19T12:34:50.277Z,98737.73
2022-10-19T12:37:33.976Z,98731.27
2022-10-19T12:40:05.508Z,98723.66
2022-10-19T12:42:39.170Z,98718.27
2022-10-19T12:45:19.330Z,98721.51
2022-10-19T12:48:22.365Z,98721.39
2022-10-19T12:50:49.404Z,98726.34
2022-10-19T12:53:40.561Z,98725.13
2022-10-19T12:56:17.685Z,98720.95
2022-10-19T12:58:46.671Z,98717.67
2022-10-19T13:01:35.336Z,98715.59
2022-10-19T13:04:35.893Z,98712.30
2022-10-19T13:07:05.433Z,98711.61
2022-10-19T13:09:32.733Z,98717.38
2022-10-19T13:12:21.535Z,98712.35
2022-10-19T13:14:58.017Z,98709.98
2022-10-19T13:17:36.499Z,98703.92
2022-10-19T13:20:15.665Z,98699.65
2022-10-19T13:23:09.273Z,98692.04
2022-10-19T13:25:42.701Z,98697.23
2022-10-19T13:28:10.141Z,98700.74
2022-10-19T13:30:37.414Z,98696.58
2022-10-19T13:33:24.735Z,98696.84
2022-10-19T13:36:02.586Z,98693.35
2022-10-19T13:38:45.265Z,98698.85
2022-10-19T13:41:22.870Z,98694.25
2022-10-19T13:43:53.612Z,98690.61
2022-10-19T13:46:30.086Z,98691.55
2022-10-19T13:49:22.912Z,98684.20
2022-10-19T13:52:13.221Z,98683.27
2022-10-19T13:55:09.109Z,98686.29
2022-10-19T13:57:54.194Z,98689.38
2022-10-19T14:00:24.259Z,98691.30
2022-10-19T14:02:55.055Z,98691.73
2022-10-19T14:05:42.953Z,98685.88
2022-10-19T14:08:19.609Z,98687.07
2022-10-19T14:11:00.717Z,98685.59
2022-10-19T14:13:28.748Z,98686.30
2022-10-19T14:15:57.591Z,98687.80
2022-10-19T14:18:28.343Z,98683.16
2022-10-19T14:21:07.979Z,98683.70
2022-10-19T14:23:36.818Z,98685.52
2022-10-19T14:26:05.843Z,98689.54
2022-10-19T14:28:32.949Z,98695.09
2022-10-19T14:31:02.677Z,98696.42
2022-10-19T14:33:31.242Z,98694.56
2022-10-19T14:35:58.317Z,98698.41
2022-10-19T14:38:38.982Z,98698.58
2022-10-19T14:41:07.072Z,98709.77
2022-10-19T14:43:34.426Z,98698.95
2022-10-19T14:46:08.745Z,98704.13
2022-10-19T14:48:39.902Z,98702.58
2022-10-19T14:51:35.297Z,98703.13
2022-10-19T14:54:38.110Z,98697.84
2022-10-19T14:57:20.250Z,98689.11
2022-10-19T14:59:56.831Z,98687.83
2022-10-19T15:02:28.117Z,98687.48
2022-10-19T15:04:56.633Z,98689.83
2022-10-19T15:07:34.013Z,98692.69
2022-10-19T15:10:01.697Z,98689.32
2022-10-19T15:12:42.742Z,98691.38
2022-10-19T15:15:18.349Z,98686.09
2022-10-19T15:17:55.251Z,98684.65
2022-10-19T15:20:30.394Z,98685.81
2022-10-19T15:22:58.108Z,98685.80
2022-10-19T15:25:37.069Z,98686.48
2022-10-19T15:28:41.632Z,98685.71
2022-10-19T15:31:15.868Z,98684.62
2022-10-19T15:33:45.994Z,98686.95
2022-10-19T15:36:19.813Z,98684.64
2022-10-19T15:38:48.076Z,98687.08
2022-10-19T15:41:20.167Z,98685.58
2022-10-19T15:43:49.170Z,98695.09
2022-10-19T15:46:32.157Z,98695.67
2022-10-19T15:49:00.820Z,98691.10
2022-10-19T15:51:27.830Z,98703.83
2022-10-19T15:54:00.149Z,98705.38
2022-10-19T15:56:29.307Z,98709.30
2022-10-19T15:58:57.785Z,98711.70
2022-10-19T16:01:27.562Z,98715.27
2022-10-19T16:03:54.677Z,98720.33
2022-10-19T16:06:23.379Z,98719.95
2022-10-19T16:08:54.163Z,98717.34
2022-10-19T16:11:21.891Z,98718.13
2022-10-19T16:13:50.328Z,98720.37
2022-10-19T16:16:29.992Z,98717.27
2022-10-19T16:18:59.004Z,98719.30
2022-10-19T16:21:29.198Z,98718.73
2022-10-19T16:23:56.221Z,98721.69
2022-10-19T16:26:25.346Z,98726.37
2022-10-19T16:28:53.327Z,98726.58
2022-10-19T16:31:20.386Z,98735.08
2022-10-19T16:33:47.384Z,98728.94
2022-10-19T16:36:14.366Z,98734.52
2022-10-19T16:38:41.334Z,98734.61
2022-10-19T16:41:09.763Z,98730.48
2022-10-19T16:43:38.195Z,98731.00
2022-10-19T16:46:05.689Z,98734.13
2022-10-19T16:48:32.960Z,98734.38
2022-10-19T16:51:05.826Z,98739.30
2022-10-19T16:53:33.659Z,98742.55
2022-10-19T16:56:10.805Z,98749.66
2022-10-19T16:58:38.000Z,98750.74
2022-10-19T17:01:13.057Z,98752.14
2022-10-19T17:03:40.886Z,98754.47
2022-10-19T17:06:08.398Z,98749.71
2022-10-19T17:08:37.287Z,98755.44
2022-10-19T17:11:22.351Z,98761.48
2022-10-19T17:13:50.896Z,98762.19
2022-10-19T17:16:18.906Z,98769.62
2022-10-19T17:18:46.072Z,98775.45
2022-10-19T17:21:15.741Z,98784.83
2022-10-19T17:23:44.095Z,98783.35
2022-10-19T17:26:11.515Z,98791.05
2022-10-19T17:28:38.692Z,98793.42
2022-10-19T17:31:07.681Z,98807.98
2022-10-19T17:33:36.115Z,98810.46
2022-10-19T17:36:05.349Z,98802.66
2022-10-19T17:38:32.281Z,98802.61
2022-10-19T17:41:07.274Z,98804.10
2022-10-19T17:43:34.683Z,98802.56
2022-10-19T17:46:03.143Z,98801.57
2022-10-19T17:48:30.276Z,98804.40
2022-10-19T17:51:01.685Z,98809.33
2022-10-19T17:53:28.901Z,98813.67
2022-10-19T17:55:59.263Z,98822.10
2022-10-19T17:58:26.206Z,98824.65
2022-10-19T18:00:54.803Z,98824.84
2022-10-19T18:03:23.528Z,98825.89
2022-10-19T18:05:58.880Z,98833.59
2022-10-19T18:09:47.922Z,98834.23
2022-10-19T18:12:21.008Z,98832.02
2022-10-19T18:14:47.961Z,98838.27
2022-10-19T18:17:15.211Z,98839.83
2022-10-19T18:19:42.385Z,98837.53
2022-10-19T18:22:09.482Z,98836.09
2022-10-19T18:24:38.814Z,98842.31
2022-10-19T18:27:05.781Z,98848.42
2022-10-19T18:29:33.174Z,98847.83
2022-10-19T18:32:03.378Z,98846.89
2022-10-19T18:34:30.655Z,98850.45
2022-10-19T18:36:57.804Z,98849.47
2022-10-19T18:39:26.189Z,98850.73
2022-10-19T18:41:56.431Z,98848.79
2022-10-19T18:44:26.538Z,98852.29
2022-10-19T18:46:55.810Z,98850.69
2022-10-19T18:49:24.012Z,98852.54
2022-10-19T18:51:55.055Z,98856.41
2022-10-19T18:54:26.495Z,98852.67
2022-10-19T18:56:54.131Z,98857.59
2022-10-19T18:59:21.350Z,98860.70
2022-10-19T19:01:48.821Z,98860.20
2022-10-19T19:04:16.085Z,98862.95
2022-10-19T19:06:43.610Z,98869.87
2022-10-19T19:09:11.148Z,98874.40
2022-10-19T19:11:40.931Z,98874.00
2022-10-19T19:14:13.083Z,98876.47
2022-10-19T19:16:41.421Z,98878.12
2022-10-19T19:19:08.980Z,98880.17
2022-10-19T19:21:37.642Z,98884.20
2022-10-19T19:24:05.834Z,98888.06
2022-10-19T19:26:37.718Z,98891.04
2022-10-19T19:29:04.990Z,98900.11
2022-10-19T19:31:33.033Z,98912.60
2022-10-19T19:34:01.290Z,98919.55
2022-10-19T19:36:28.550Z,98924.50
2022-10-19T19:38:56.841Z,98926.58
2022-10-19T19:41:23.805Z,98924.61
2022-10-19T19:43:50.901Z,98925.78
2022-10-19T19:46:20.972Z,98928.13
2022-10-19T19:48:48.717Z,98930.59
2022-10-19T19:51:17.673Z,98932.31
2022-10-19T19:53:46.292Z,98936.14
2022-10-19T19:56:14.775Z,98941.23
2022-10-19T19:58:42.598Z,98943.06
2022-10-19T20:01:15.126Z,98940.83
2022-10-19T20:03:42.155Z,98945.45
2022-10-19T20:06:15.706Z,98948.50
2022-10-19T20:08:42.927Z,98948.84
2022-10-19T20:11:11.796Z,98949.23
2022-10-19T20:13:39.064Z,98949.78
2022-10-19T20:16:17.494Z,98944.67
2022-10-19T20:18:45.678Z,98946.89
2022-10-19T20:21:13.569Z,98949.77
2022-10-19T20:23:40.627Z,98951.47
2022-10-19T20:26:09.121Z,98955.29
2022-10-19T20:28:36.014Z,98956.80
2022-10-19T20:31:04.440Z,98958.48
2022-10-19T20:33:32.332Z,98963.40
2022-10-19T20:36:09.709Z,98960.89
2022-10-19T20:38:38.575Z,98967.30
2022-10-19T20:41:08.182Z,98969.38
2022-10-19T20:43:36.510Z,98973.12
2022-10-19T20:46:04.221Z,98971.59
2022-10-19T20:48:31.570Z,98972.42
2022-10-19T20:51:15.348Z,98972.70
2022-10-19T20:53:46.381Z,98976.40
2022-10-19T20:56:15.525Z,98979.45
2022-10-19T20:58:43.881Z,98974.30
2022-10-19T21:01:14.870Z,98976.75
2022-10-19T21:03:49.130Z,98976.76
2022-10-19T21:06:16.207Z,98981.07
2022-10-19T21:08:43.177Z,98984.70
2022-10-19T21:11:16.934Z,98990.05
2022-10-19T21:13:44.378Z,98992.58
2022-10-19T21:16:17.202Z,98989.35
2022-10-19T21:18:44.683Z,98992.59
2022-10-19T21:21:13.054Z,98994.75
2022-10-19T21:23:40.058Z,98993.74
2022-10-19T21:26:07.114Z,98993.48
2022-10-19T21:28:35.927Z,98998.11
2022-10-19T21:31:07.028Z,98998.89
2022-10-19T21:33:35.213Z,99000.97
2022-10-19T21:36:03.561Z,99003.52
2022-10-19T21:38:30.771Z,99001.29
2022-10-19T21:41:02.327Z,99004.41
2022-10-19T21:43:29.526Z,99005.12
2022-10-19T21:45:56.629Z,99007.30
2022-10-19T21:48:23.773Z,99007.27
2022-10-19T21:50:51.038Z,99013.83
2022-10-19T21:53:22.680Z,99010.00
2022-10-19T21:55:50.482Z,99012.50
2022-10-19T21:58:17.542Z,99012.71
2022-10-19T22:00:44.532Z,99017.91
2022-10-19T22:03:11.736Z,99020.30
2022-10-19T22:05:38.865Z,99015.80
2022-10-19T22:08:06.344Z,99020.89
2022-10-19T22:10:33.326Z,99015.80
2022-10-19T22:13:00.836Z,99018.81
2022-10-19T22:15:28.373Z,99020.54
2022-10-19T22:17:57.436Z,99022.18
2022-10-19T22:20:24.407Z,99030.39
2022-10-19T22:22:54.229Z,99029.08
2022-10-19T22:25:22.279Z,99032.08
2022-10-19T22:27:49.193Z,99039.38
2022-10-19T22:30:16.351Z,99040.22
2022-10-19T22:32:43.279Z,99041.64
2022-10-19T22:35:10.391Z,99042.84
2022-10-19T22:37:37.523Z,99045.63
2022-10-19T22:40:05.378Z,99045.98
2022-10-19T22:42:32.487Z,99053.90
2022-10-19T22:44:59.601Z,99059.57
2022-10-19T22:47:26.585Z,99061.73
2022-10-19T22:49:53.598Z,99062.86
2022-10-19T22:52:22.416Z,99066.55
2022-10-19T22:54:51.281Z,99068.79
2022-10-19T22:57:19.323Z,99065.82
2022-10-19T22:59:46.547Z,99070.42
2022-10-19T23:02:13.694Z,99064.07
2022-10-19T23:04:40.779Z,99067.05
2022-10-19T23:07:07.925Z,99070.27
2022-10-19T23:09:34.971Z,99072.89
2022-10-19T23:12:02.121Z,99078.67
2022-10-19T23:14:29.155Z,99077.66
2022-10-19T23:16:56.205Z,99082.86
2022-10-19T23:19:23.093Z,99085.44
2022-10-19T23:21:50.160Z,99082.91
2022-10-19T23:24:17.186Z,99087.73
2022-10-19T23:26:44.975Z,99089.39
2022-10-19T23:29:12.160Z,99091.15
2022-10-19T23:31:39.135Z,99092.30
2022-10-19T23:34:06.154Z,99095.98
2022-10-19T23:36:33.056Z,99100.58
2022-10-19T23:39:00.093Z,99103.23
2022-10-19T23:41:27.030Z,99106.89
2022-10-19T23:43:54.010Z,99113.21
2022-10-19T23:46:23.038Z,99118.56
2022-10-19T23:48:49.995Z,99118.38
2022-10-19T23:51:18.570Z,99123.98
2022-10-19T23:53:47.103Z,99124.30
2022-10-19T23:56:18.820Z,99128.88
2022-10-19T23:58:45.883Z,99124.85
